createdAt,value
2019-04-26T00:00:42.614Z,74.81
2019-04-26T00:03:19.012Z,74.70
2019-04-26T00:05:50.825Z,74.64
2019-04-26T00:08:23.107Z,74.53
2019-04-26T00:11:07.435Z,74.99
2019-04-26T00:13:58.027Z,74.98
2019-04-26T00:16:39.879Z,74.99
2019-04-26T00:19:13.787Z,75.28
2019-04-26T00:21:45.847Z,75.97
2019-04-26T00:24:19.350Z,75.52
2019-04-26T00:26:51.179Z,75.37
2019-04-26T00:29:24.901Z,75.01
2019-04-26T00:31:56.688Z,74.84
2019-04-26T00:34:28.426Z,75.14
2019-04-26T00:37:00.355Z,75.23
2019-04-26T00:39:32.069Z,75.54
2019-04-26T00:42:04.283Z,75.94
2019-04-26T00:44:36.231Z,76.13
2019-04-26T00:47:08.020Z,76.09
2019-04-26T00:49:43.942Z,75.72
2019-04-26T00:52:14.515Z,75.76
2019-04-26T00:54:46.880Z,75.53
2019-04-26T00:57:20.339Z,75.22
2019-04-26T00:59:52.150Z,75.68
2019-04-26T01:02:38.554Z,75.36
2019-04-26T01:05:11.149Z,75.08
2019-04-26T01:07:46.302Z,75.02
2019-04-26T01:10:18.097Z,75.46
2019-04-26T01:12:52.920Z,75.71
2019-04-26T01:15:24.860Z,75.19
2019-04-26T01:17:56.608Z,74.71
2019-04-26T01:20:28.683Z,74.59
2019-04-26T01:23:10.577Z,74.26
2019-04-26T01:26:10.920Z,74.80
2019-04-26T01:28:53.013Z,74.77
2019-04-26T01:31:24.786Z,75.69
2019-04-26T01:33:56.548Z,75.22
2019-04-26T01:36:28.509Z,75.06
2019-04-26T01:39:10.560Z,74.89
2019-04-26T01:41:47.595Z,73.90
2019-04-26T01:44:41.100Z,74.35
2019-04-26T01:47:13.515Z,74.98
2019-04-26T01:49:46.884Z,74.41
2019-04-26T01:52:22.386Z,74.49
2019-04-26T01:54:53.704Z,73.74
2019-04-26T01:57:25.816Z,73.04
2019-04-26T02:00:01.461Z,73.30
2019-04-26T02:02:50.643Z,73.07
2019-04-26T02:05:25.910Z,72.93
2019-04-26T02:07:58.265Z,72.91
2019-04-26T02:10:32.691Z,73.56
2019-04-26T02:13:04.531Z,73.00
2019-04-26T02:15:36.281Z,72.48
2019-04-26T02:18:08.066Z,72.28
2019-04-26T02:20:57.752Z,72.32
2019-04-26T02:23:35.767Z,72.17
2019-04-26T02:26:26.531Z,72.37
2019-04-26T02:28:58.617Z,72.39
2019-04-26T02:31:33.227Z,72.67
2019-04-26T02:34:04.862Z,72.02
2019-04-26T02:36:53.038Z,72.20
2019-04-26T02:39:17.940Z,73.03
2019-04-26T02:41:50.959Z,73.86
2019-04-26T02:44:28.899Z,73.51
2019-04-26T02:47:46.277Z,73.19
2019-04-26T02:50:23.383Z,73.34
2019-04-26T02:53:04.426Z,74.23
2019-04-26T02:55:53.313Z,74.43
2019-04-26T02:58:25.545Z,74.65
2019-04-26T03:00:58.009Z,75.14
2019-04-26T03:03:32.342Z,74.94
2019-04-26T03:06:04.739Z,74.68
2019-04-26T03:08:37.819Z,74.05
2019-04-26T03:11:17.262Z,74.18
2019-04-26T03:13:59.708Z,74.53
2019-04-26T03:16:52.777Z,74.29
2019-04-26T03:19:52.804Z,74.38
2019-04-26T03:22:58.958Z,74.85
2019-04-26T03:26:07.960Z,75.46
2019-04-26T03:28:45.604Z,76.25
2019-04-26T03:31:42.918Z,76.08
2019-04-26T03:34:34.389Z,75.55
2019-04-26T03:38:12.943Z,74.92
2019-04-26T03:40:58.148Z,75.05
2019-04-26T03:43:42.646Z,74.80
2019-04-26T03:46:45.463Z,74.99
2019-04-26T03:50:00.566Z,75.05
2019-04-26T03:53:31.549Z,75.65
2019-04-26T03:56:32.668Z,76.31
2019-04-26T03:59:32.061Z,75.44
2019-04-26T04:02:13.382Z,74.84
2019-04-26T04:04:56.197Z,74.39
2019-04-26T04:07:39.574Z,74.26
2019-04-26T04:10:06.118Z,74.26
2019-04-26T04:13:03.181Z,75.10
2019-04-26T04:15:46.225Z,75.25
2019-04-26T04:18:22.402Z,74.53
2019-04-26T04:21:42.670Z,74.38
2019-04-26T04:24:28.832Z,74.36
2019-04-26T04:27:45.168Z,74.74
2019-04-26T04:30:45.870Z,75.01
2019-04-26T04:33:34.804Z,74.84
2019-04-26T04:36:12.991Z,76.18
2019-04-26T04:39:12.213Z,76.26
2019-04-26T04:41:55.908Z,76.06
2019-04-26T04:45:27.615Z,75.19
2019-04-26T04:48:27.884Z,75.49
2019-04-26T04:51:15.573Z,75.46
2019-04-26T04:54:13.975Z,75.46
2019-04-26T04:57:10.657Z,75.99
2019-04-26T05:00:27.350Z,76.06
2019-04-26T05:03:33.399Z,75.84
2019-04-26T05:06:29.411Z,76.09
2019-04-26T05:09:11.737Z,75.59
2019-04-26T05:12:08.955Z,76.03
2019-04-26T05:15:11.125Z,75.99
2019-04-26T05:18:12.324Z,75.37
2019-04-26T05:21:40.135Z,75.93
2019-04-26T05:24:40.473Z,75.85
2019-04-26T05:28:09.425Z,75.23
2019-04-26T05:31:20.676Z,75.53
2019-04-26T05:34:29.601Z,76.04
2019-04-26T05:37:22.444Z,75.81
2019-04-26T05:40:44.363Z,75.81
2019-04-26T05:43:51.838Z,75.64
2019-04-26T05:46:51.616Z,75.95
2019-04-26T05:50:45.499Z,76.19
2019-04-26T05:54:34.398Z,76.40
2019-04-26T05:57:24.205Z,76.20
2019-04-26T06:00:38.422Z,75.66
2019-04-26T06:03:52.318Z,75.41
2019-04-26T06:06:39.338Z,74.61
2019-04-26T06:09:59.768Z,74.79
2019-04-26T06:12:47.757Z,74.35
2019-04-26T06:15:33.076Z,73.80
2019-04-26T06:18:20.401Z,73.03
2019-04-26T06:21:16.651Z,72.63
2019-04-26T06:24:05.666Z,72.55
2019-04-26T06:27:17.107Z,71.31
2019-04-26T06:29:56.576Z,71.39
2019-04-26T06:32:39.600Z,70.59
2019-04-26T06:35:16.073Z,69.88
2019-04-26T06:38:49.250Z,70.87
2019-04-26T06:41:58.550Z,71.49
2019-04-26T06:44:34.571Z,71.43
2019-04-26T06:47:24.718Z,71.62
2019-04-26T06:50:16.353Z,71.49
2019-04-26T06:53:14.430Z,71.98
2019-04-26T06:55:56.495Z,71.66
2019-04-26T06:59:06.396Z,71.06
2019-04-26T07:01:59.224Z,71.43
2019-04-26T07:04:44.282Z,72.29
2019-04-26T07:07:43.771Z,72.26
2019-04-26T07:10:43.101Z,72.18
2019-04-26T07:13:42.175Z,71.75
2019-04-26T07:16:23.579Z,71.59
2019-04-26T07:19:48.583Z,71.62
2019-04-26T07:22:40.958Z,70.45
2019-04-26T07:26:04.429Z,69.74
2019-04-26T07:28:53.945Z,69.74
2019-04-26T07:31:51.950Z,70.43
2019-04-26T07:35:04.481Z,71.71
2019-04-26T07:38:04.855Z,72.67
2019-04-26T07:41:32.648Z,73.16
2019-04-26T07:44:20.481Z,71.95
2019-04-26T07:47:15.791Z,71.17
2019-04-26T07:50:16.506Z,70.22
2019-04-26T07:53:38.543Z,68.17
2019-04-26T07:56:40.735Z,67.42
2019-04-26T07:59:42.971Z,66.89
2019-04-26T08:02:37.276Z,65.58
2019-04-26T08:05:19.120Z,65.27
2019-04-26T08:07:56.079Z,65.91
2019-04-26T08:10:27.811Z,61.40
2019-04-26T08:13:06.085Z,56.85
2019-04-26T08:15:55.495Z,54.03
2019-04-26T08:18:38.079Z,56.16
2019-04-26T08:21:25.937Z,51.15
2019-04-26T08:24:17.466Z,49.91
2019-04-26T08:27:21.497Z,49.90
2019-04-26T08:29:46.275Z,52.42
2019-04-26T08:32:23.979Z,47.15
2019-04-26T08:35:08.299Z,47.39
2019-04-26T08:37:54.191Z,45.74
2019-04-26T08:40:31.050Z,44.85
2019-04-26T08:43:18.256Z,45.30
2019-04-26T08:46:11.791Z,39.31
2019-04-26T08:48:48.720Z,39.06
2019-04-26T08:51:21.856Z,39.92
2019-04-26T08:53:55.177Z,44.97
2019-04-26T08:56:31.131Z,49.37
2019-04-26T08:59:13.391Z,47.11
2019-04-26T09:01:53.750Z,45.34
2019-04-26T09:04:32.666Z,49.39
2019-04-26T09:07:07.320Z,46.19
2019-04-26T09:09:40.671Z,46.17
2019-04-26T09:12:22.964Z,47.70
2019-04-26T09:14:54.154Z,44.29
2019-04-26T09:17:27.668Z,41.43
2019-04-26T09:20:07.165Z,40.25
2019-04-26T09:22:56.614Z,42.52
2019-04-26T09:25:39.268Z,40.98
2019-04-26T09:28:18.981Z,42.36
2019-04-26T09:31:09.676Z,41.10
2019-04-26T09:33:47.709Z,43.88
2019-04-26T09:36:19.549Z,46.60
2019-04-26T09:38:52.308Z,45.59
2019-04-26T09:41:26.591Z,44.51
2019-04-26T09:44:05.150Z,46.56
2019-04-26T09:46:48.387Z,49.06
2019-04-26T09:49:41.264Z,48.56
2019-04-26T09:52:18.694Z,46.52
2019-04-26T09:54:50.578Z,41.15
2019-04-26T09:57:23.741Z,39.53
2019-04-26T09:59:55.623Z,37.14
2019-04-26T10:02:29.483Z,35.05
2019-04-26T10:05:02.324Z,33.69
2019-04-26T10:07:37.526Z,34.94
2019-04-26T10:10:09.296Z,36.62
2019-04-26T10:12:53.953Z,38.45
2019-04-26T10:15:44.498Z,44.92
2019-04-26T10:18:20.283Z,44.64
2019-04-26T10:20:51.130Z,42.77
2019-04-26T10:23:22.879Z,41.57
2019-04-26T10:25:54.705Z,37.64
2019-04-26T10:28:27.435Z,39.37
2019-04-26T10:31:00.619Z,37.32
2019-04-26T10:33:32.566Z,40.95
2019-04-26T10:36:05.772Z,40.23
2019-04-26T10:38:37.498Z,43.68
2019-04-26T10:41:11.049Z,44.31
2019-04-26T10:43:43.946Z,46.46
2019-04-26T10:46:17.047Z,45.82
2019-04-26T10:48:49.862Z,47.00
2019-04-26T10:51:30.845Z,47.88
2019-04-26T10:54:09.113Z,45.04
2019-04-26T10:56:45.781Z,42.10
2019-04-26T10:59:34.646Z,38.50
2019-04-26T11:02:07.449Z,39.38
2019-04-26T11:04:41.338Z,36.66
2019-04-26T11:07:13.000Z,37.72
2019-04-26T11:09:44.894Z,37.23
2019-04-26T11:12:17.818Z,37.14
2019-04-26T11:14:53.298Z,42.78
2019-04-26T11:17:23.104Z,43.76
2019-04-26T11:19:54.867Z,43.65
2019-04-26T11:22:29.370Z,43.92
2019-04-26T11:25:01.154Z,42.30
2019-04-26T11:27:33.046Z,41.03
2019-04-26T11:30:15.703Z,41.94
2019-04-26T11:32:38.474Z,38.38
2019-04-26T11:35:10.326Z,35.50
2019-04-26T11:37:42.314Z,40.60
2019-04-26T11:40:15.646Z,40.79
2019-04-26T11:42:47.868Z,36.52
2019-04-26T11:45:20.548Z,37.04
2019-04-26T11:47:56.357Z,37.53
2019-04-26T11:50:25.892Z,34.13
2019-04-26T11:52:57.662Z,36.33
2019-04-26T11:55:30.250Z,41.40
2019-04-26T11:58:02.922Z,41.71
2019-04-26T12:00:40.126Z,40.16
2019-04-26T12:03:13.852Z,42.45
2019-04-26T12:06:08.079Z,41.52
2019-04-26T12:08:49.476Z,41.13
2019-04-26T12:11:31.323Z,42.12
2019-04-26T12:13:55.361Z,42.56
2019-04-26T12:16:28.304Z,43.05
2019-04-26T12:19:00.043Z,44.95
2019-04-26T12:21:34.146Z,45.13
2019-04-26T12:24:05.377Z,45.71
2019-04-26T12:26:43.715Z,45.94
2019-04-26T12:29:14.718Z,43.94
2019-04-26T12:31:51.847Z,45.18
2019-04-26T12:34:23.637Z,45.24
2019-04-26T12:36:57.181Z,44.74
2019-04-26T12:39:32.217Z,45.59
2019-04-26T12:42:04.082Z,45.37
2019-04-26T12:44:43.397Z,44.93
2019-04-26T12:47:19.851Z,44.09
2019-04-26T12:49:54.549Z,44.71
2019-04-26T12:52:25.220Z,45.28
2019-04-26T12:54:57.765Z,44.03
2019-04-26T12:57:29.544Z,42.91
2019-04-26T13:00:03.687Z,44.09
2019-04-26T13:02:36.936Z,42.21
2019-04-26T13:05:08.870Z,44.15
2019-04-26T13:07:42.972Z,43.96
2019-04-26T13:10:44.755Z,43.34
2019-04-26T13:13:23.190Z,43.08
2019-04-26T13:16:13.819Z,43.10
2019-04-26T13:18:46.967Z,45.03
2019-04-26T13:21:19.008Z,45.28
2019-04-26T13:23:50.726Z,44.27
2019-04-26T13:26:22.486Z,44.30
2019-04-26T13:28:57.161Z,44.03
2019-04-26T13:31:31.668Z,44.44
2019-04-26T13:34:02.864Z,43.62
2019-04-26T13:36:35.707Z,44.59
2019-04-26T13:39:13.512Z,45.12
2019-04-26T13:41:47.583Z,45.03
2019-04-26T13:44:40.815Z,44.92
2019-04-26T13:47:32.644Z,44.68
2019-04-26T13:50:22.400Z,46.05
2019-04-26T13:52:56.982Z,45.74
2019-04-26T13:55:29.388Z,44.96
2019-04-26T13:58:04.959Z,42.84
2019-04-26T14:00:39.777Z,43.67
2019-04-26T14:03:10.387Z,44.37
2019-04-26T14:05:42.145Z,44.16
2019-04-26T14:08:14.386Z,43.64
2019-04-26T14:10:49.844Z,43.70
2019-04-26T14:13:20.791Z,44.25
2019-04-26T14:15:53.433Z,44.17
2019-04-26T14:18:25.194Z,44.02
2019-04-26T14:21:00.010Z,44.27
2019-04-26T14:24:06.287Z,43.70
2019-04-26T14:26:43.826Z,44.80
2019-04-26T14:29:15.559Z,45.22
2019-04-26T14:31:51.541Z,45.28
2019-04-26T14:34:21.736Z,43.84
2019-04-26T14:37:05.923Z,45.15
2019-04-26T14:39:35.260Z,46.39
2019-04-26T14:42:02.500Z,46.10
2019-04-26T14:44:35.587Z,45.67
2019-04-26T14:47:14.734Z,45.15
2019-04-26T14:49:43.253Z,43.68
2019-04-26T14:52:16.210Z,42.61
2019-04-26T14:54:48.067Z,43.47
2019-04-26T14:57:26.979Z,44.80
2019-04-26T15:00:00.319Z,42.79
2019-04-26T15:02:55.779Z,42.59
2019-04-26T15:05:50.488Z,43.24
2019-04-26T15:08:22.640Z,43.00
2019-04-26T15:11:01.021Z,42.80
2019-04-26T15:13:28.637Z,42.05
2019-04-26T15:16:03.965Z,43.43
2019-04-26T15:18:37.045Z,43.92
2019-04-26T15:21:07.325Z,42.97
2019-04-26T15:23:39.068Z,43.00
2019-04-26T15:26:10.861Z,42.97
2019-04-26T15:28:43.651Z,44.38
2019-04-26T15:31:17.247Z,42.10
2019-04-26T15:33:52.826Z,43.11
2019-04-26T15:36:24.860Z,41.73
2019-04-26T15:38:57.285Z,42.65
2019-04-26T15:41:47.045Z,41.62
2019-04-26T15:44:36.279Z,42.23
2019-04-26T15:47:26.871Z,41.10
2019-04-26T15:50:09.972Z,40.42
2019-04-26T15:52:39.523Z,40.35
2019-04-26T15:55:13.221Z,40.90
2019-04-26T15:57:47.825Z,40.39
2019-04-26T16:00:22.675Z,41.19
2019-04-26T16:02:54.658Z,40.65
2019-04-26T16:05:29.436Z,41.91
2019-04-26T16:08:01.815Z,41.85
2019-04-26T16:10:38.469Z,40.89
2019-04-26T16:13:21.074Z,42.71
2019-04-26T16:15:48.715Z,42.73
2019-04-26T16:18:20.046Z,42.46
2019-04-26T16:21:01.985Z,42.65
2019-04-26T16:23:41.230Z,43.00
2019-04-26T16:26:12.930Z,42.45
2019-04-26T16:29:18.195Z,42.69
2019-04-26T16:32:05.601Z,42.15
2019-04-26T16:34:42.921Z,42.87
2019-04-26T16:37:14.987Z,42.08
2019-04-26T16:39:48.641Z,42.11
2019-04-26T16:42:23.438Z,42.13
2019-04-26T16:44:55.437Z,42.36
2019-04-26T16:47:27.162Z,43.34
2019-04-26T16:50:01.249Z,42.58
2019-04-26T16:52:33.716Z,43.26
2019-04-26T16:55:15.277Z,42.61
2019-04-26T16:57:43.761Z,44.01
2019-04-26T17:00:16.219Z,42.93
2019-04-26T17:02:46.104Z,43.06
2019-04-26T17:05:23.918Z,43.25
2019-04-26T17:07:58.823Z,42.91
2019-04-26T17:10:28.144Z,42.66
2019-04-26T17:12:59.916Z,44.32
2019-04-26T17:15:32.347Z,43.74
2019-04-26T17:18:05.277Z,42.90
2019-04-26T17:20:40.556Z,44.50
2019-04-26T17:23:33.388Z,43.86
2019-04-26T17:26:29.338Z,43.24
2019-04-26T17:29:02.276Z,43.19
2019-04-26T17:31:34.124Z,43.30
2019-04-26T17:34:05.980Z,44.12
2019-04-26T17:36:37.831Z,44.23
2019-04-26T17:39:16.950Z,44.65
2019-04-26T17:41:50.794Z,44.38
2019-04-26T17:44:26.311Z,45.05
2019-04-26T17:46:56.935Z,43.29
2019-04-26T17:49:28.922Z,43.40
2019-04-26T17:52:01.994Z,43.83
2019-04-26T17:54:46.068Z,44.28
2019-04-26T17:57:12.625Z,44.26
2019-04-26T17:59:47.770Z,44.59
2019-04-26T18:02:31.279Z,44.82
2019-04-26T18:04:58.970Z,45.27
2019-04-26T18:07:39.667Z,46.48
2019-04-26T18:10:02.424Z,46.30
2019-04-26T18:12:32.654Z,46.67
2019-04-26T18:15:10.404Z,46.05
2019-04-26T18:18:00.433Z,45.95
2019-04-26T18:20:51.510Z,46.04
2019-04-26T18:23:23.729Z,46.71
2019-04-26T18:25:55.518Z,47.12
2019-04-26T18:28:27.409Z,48.57
2019-04-26T18:30:59.511Z,48.02
2019-04-26T18:33:32.855Z,48.27
2019-04-26T18:36:04.877Z,48.32
2019-04-26T18:38:36.730Z,49.37
2019-04-26T18:41:08.524Z,49.35
2019-04-26T18:43:43.024Z,49.11
2019-04-26T18:46:24.075Z,49.22
2019-04-26T18:48:58.726Z,50.12
2019-04-26T18:51:30.586Z,50.58
2019-04-26T18:54:20.442Z,50.91
2019-04-26T18:56:55.170Z,51.25
2019-04-26T18:59:27.989Z,52.26
2019-04-26T19:02:00.074Z,52.23
2019-04-26T19:04:33.489Z,53.32
2019-04-26T19:07:05.862Z,53.50
2019-04-26T19:09:56.626Z,53.41
2019-04-26T19:12:14.470Z,52.79
2019-04-26T19:15:07.509Z,53.42
2019-04-26T19:17:46.331Z,53.44
2019-04-26T19:20:35.708Z,53.12
2019-04-26T19:23:09.120Z,53.31
2019-04-26T19:25:41.396Z,54.32
2019-04-26T19:28:13.596Z,53.70
2019-04-26T19:30:49.211Z,53.49
2019-04-26T19:33:19.082Z,53.94
2019-04-26T19:35:50.973Z,53.95
2019-04-26T19:38:22.857Z,54.28
2019-04-26T19:40:56.918Z,54.78
2019-04-26T19:44:06.447Z,54.82
2019-04-26T19:47:09.352Z,54.97
2019-04-26T19:50:09.595Z,56.35
2019-04-26T19:53:03.002Z,56.39
2019-04-26T19:59:23.422Z,56.41
2019-04-26T20:01:57.658Z,57.43
2019-04-26T20:04:33.863Z,56.98
2019-04-26T20:07:04.361Z,58.70
2019-04-26T20:09:38.070Z,58.55
2019-04-26T20:12:10.004Z,59.69
2019-04-26T20:14:49.096Z,59.88
2019-04-26T20:17:20.107Z,57.82
2019-04-26T20:19:52.818Z,58.17
2019-04-26T20:22:28.356Z,58.64
2019-04-26T20:24:57.855Z,58.12
2019-04-26T20:27:32.231Z,58.26
2019-04-26T20:30:06.805Z,58.39
2019-04-26T20:32:43.291Z,58.09
2019-04-26T20:35:19.900Z,59.27
2019-04-26T20:37:52.065Z,59.86
2019-04-26T20:40:25.603Z,60.01
2019-04-26T20:43:05.362Z,60.14
2019-04-26T20:45:39.828Z,60.77
2019-04-26T20:48:07.072Z,60.98
2019-04-26T20:50:38.931Z,61.71
2019-04-26T20:53:12.000Z,62.92
2019-04-26T20:55:47.061Z,62.95
2019-04-26T20:58:19.103Z,62.08
2019-04-26T21:00:54.589Z,62.20
2019-04-26T21:18:56.271Z,61.35
2019-04-26T21:21:28.229Z,60.88
2019-04-26T21:24:03.731Z,61.02
2019-04-26T21:26:56.953Z,62.00
2019-04-26T21:29:44.407Z,62.69
2019-04-26T21:32:25.948Z,63.27
2019-04-26T21:35:01.092Z,63.20
2019-04-26T21:37:53.941Z,62.77
2019-04-26T21:40:39.305Z,63.18
2019-04-26T21:43:11.115Z,63.03
2019-04-26T21:45:44.043Z,63.31
2019-04-26T21:48:18.368Z,63.37
2019-04-26T21:50:50.531Z,63.48
2019-04-26T21:53:23.929Z,63.81
2019-04-26T21:55:56.162Z,64.07
2019-04-26T21:58:31.027Z,64.93
2019-04-26T22:01:18.986Z,64.79
2019-04-26T22:03:58.319Z,64.84
2019-04-26T22:06:29.121Z,65.11
2019-04-26T22:09:33.277Z,66.38
2019-04-26T22:12:03.626Z,66.30
2019-04-26T22:14:37.192Z,66.57
2019-04-26T22:17:28.457Z,66.96
2019-04-26T22:20:28.763Z,67.00
2019-04-26T22:23:25.500Z,67.08
2019-04-26T22:26:00.181Z,67.48
2019-04-26T22:28:36.096Z,67.34
2019-04-26T22:31:08.418Z,67.54
2019-04-26T22:33:39.827Z,67.20
2019-04-26T22:36:13.160Z,67.67
2019-04-26T22:38:45.175Z,67.82
2019-04-26T22:41:16.898Z,67.58
2019-04-26T22:44:13.932Z,68.07
2019-04-26T22:47:24.089Z,67.78
2019-04-26T22:49:56.156Z,68.16
2019-04-26T22:52:28.763Z,69.71
2019-04-26T22:55:00.738Z,70.44
2019-04-26T22:57:33.379Z,69.51
2019-04-26T23:00:05.388Z,69.12
2019-04-26T23:02:38.910Z,68.81
2019-04-26T23:05:10.675Z,68.16
2019-04-26T23:07:42.446Z,68.34
2019-04-26T23:10:15.295Z,69.01
2019-04-26T23:13:10.717Z,69.27
2019-04-26T23:16:05.239Z,68.81
2019-04-26T23:18:51.570Z,68.81
2019-04-26T23:21:28.231Z,68.14
2019-04-26T23:24:00.005Z,68.57
2019-04-26T23:26:33.467Z,70.75
2019-04-26T23:29:08.707Z,70.60
2019-04-26T23:31:41.724Z,70.70
2019-04-26T23:34:14.305Z,69.48
2019-04-26T23:36:49.108Z,69.77
2019-04-26T23:39:19.780Z,69.42
2019-04-26T23:41:51.521Z,69.85
2019-04-26T23:44:24.928Z,69.83
2019-04-26T23:47:01.172Z,69.91
2019-04-26T23:49:30.213Z,69.92
2019-04-26T23:52:03.681Z,70.16
2019-04-26T23:54:35.943Z,70.42
2019-04-26T23:57:08.057Z,70.56
2019-04-26T23:59:40.753Z,70.44
